Monday, July 23, 2018, 11:22 AM EDT
Back to Local

KASH, Nashua, Boire Field Airport

Location: Nashua, NH, United States Lat: 42.782
Local Time: 11:22 AM EDT (15:22 GMT) Lon: -71.515
Time Zone: US/Eastern Elev: 200 ft

Show me the last for .
Show Decoded

2018-07-23 10:56 METAR KASH 231456Z 16007KT 140V200 5SM BR OVC009 25/24 A3022 RMK AO2
                 RAE1358B18E29 SLP242 P0000 60000 T02500244 51007 =
2018-07-23 09:56 METAR KASH 231356Z 15003KT 5SM -RA BR OVC009 24/24 A3022 RMK AO2 RAB17 CIG
                 006V011 SLP242 P0000 T02390239 =
2018-07-23 08:56 METAR KASH 231256Z 13006KT 6SM BR BKN009 OVC013 24/24 A3021 RMK AO2 RAB23E41 CIG
                 006V012 SLP238 P0000 T02390239 =
2018-07-23 07:56 METAR KASH 231156Z 14005KT 5SM BR OVC007 24/24 A3020 RMK AO2 RAB06E38 CIG
                 004V011 SLP235 P0000 60000 7//// T02390239 10239 20228 51007 =
2018-07-23 07:54 METAR KASH 231154Z 14005KT 5SM BR OVC005 24/24 A3020 RMK AO2 RAB06E38 CIG
                 004V010 P0000 =
2018-07-23 06:56 METAR KASH 231056Z 13005KT 5SM BR OVC007 23/23 A3019 RMK AO2 RAE29 CIG 005V009
                 SLP231 P0000 T02330233 =
2018-07-23 05:56 METAR KASH 230956Z AUTO 12004KT 5SM -RA BR OVC009 23/23 A3018 RMK AO2 RAB55 CIG
                 005V012 SLP228 P0000 T02330233 =
2018-07-23 05:23 METAR KASH 230923Z AUTO 13004KT 10SM BKN009 OVC015 23/23 A3018 RMK AO2 CIG
                 007V013 =
2018-07-23 04:56 METAR KASH 230856Z AUTO 13004KT 10SM SCT006 OVC013 23/23 A3017 RMK AO2 RAB08E46
                 SLP222 P0000 60000 T02330233 53003 =
2018-07-23 03:56 METAR KASH 230756Z AUTO 13004KT 7SM OVC008 23/23 A3016 RMK AO2 RAE25 CIG 006V012
                 SLP220 P0000 T02330233 =
2018-07-23 02:56 METAR KASH 230656Z AUTO 14005KT 5SM -RA BR OVC006 23/23 A3016 RMK AO2 RAE05B51
                 SLP220 P0000 T02330233 =
2018-07-23 02:48 METAR KASH 230648Z AUTO 13005KT 8SM OVC006 23/23 A3016 RMK AO2 RAE05 P0000 =
2018-07-23 01:56 METAR KASH 230556Z AUTO 12005KT 5SM -RA BR OVC004 23/23 A3016 RMK AO2 SLP220
                 P0000 6//// T02280228 10233 20222 55003 =
2018-07-23 00:56 METAR KASH 230456Z AUTO 12007KT 7SM -RA OVC004 23/23 A3016 RMK AO2 SLP220 P0000
                 T02280228 =
2018-07-22 23:56 METAR KASH 230356Z AUTO 11004KT 6SM -RA BR OVC004 23/23 A3016 RMK AO2 SLP222
                 T02280228 402670178 =
2018-07-22 23:18 METAR KASH 230318Z AUTO 11005KT 8SM -RA OVC004 23/23 A3017 RMK AO2 =
2018-07-22 22:56 METAR KASH 230256Z AUTO 12004KT 6SM -RA BR OVC006 23/23 A3017 RMK AO2 RAB00
                 SLP224 6//// T02280228 51010 PNO $ =
2018-07-22 22:27 METAR KASH 230227Z AUTO 12004KT 5SM -RA BR BKN006 BKN017 OVC025 23/23 A3016 RMK
                 AO2 RAB00 CIG 005V011 PNO $ =
2018-07-22 21:56 METAR KASH 230156Z AUTO 10005KT 10SM SCT008 BKN023 OVC055 23/23 A3016 RMK AO2
                 SLP222 T02280228 =
2018-07-22 21:48 METAR KASH 230148Z AUTO 09006KT 10SM BKN008 BKN025 OVC055 23/23 A3016 RMK AO2 =
2018-07-22 21:36 METAR KASH 230136Z AUTO 10004KT 10SM SCT008 BKN023 OVC055 23/23 A3016 RMK AO2 =
2018-07-22 21:27 METAR KASH 230127Z AUTO 09005KT 8SM BKN008 BKN021 OVC026 23/23 A3016 RMK AO2 CIG
                 007V011 =
2018-07-22 20:56 METAR KASH 230056Z 13003KT 6SM BR SCT011 SCT016 OVC028 22/22 A3015 RMK AO2
                 RAE06B32E48 SLP219 P0001 T02220222 =
2018-07-22 20:42 METAR KASH 230042Z 00000KT 6SM -RA BR SCT011 SCT016 OVC028 22/22 A3015 RMK AO2
                 RAE06B32 P0001 =
2018-07-22 19:56 METAR KASH 222356Z 00000KT 6SM -RA BR SCT020 BKN036 BKN070 23/22 A3014 RMK AO2
                 RAB40 SLP214 P0000 60004 T02280222 10267 20211 53015 =
2018-07-22 18:56 METAR KASH 222256Z 13006KT 10SM BKN022 BKN027 OVC038 25/22 A3011 RMK AO2 SLP206
                 T02500222 =
2018-07-22 18:30 METAR KASH 222230Z 15006G14KT 10SM BKN013 BKN031 BKN040 25/22 A3012 RMK AO2 =
2018-07-22 17:56 METAR KASH 222156Z 17005KT 10SM BKN026 26/22 A3011 RMK AO2 SLP204 P0001
                 T02560222 =
2018-07-22 16:56 METAR KASH 222056Z VRB06KT 10SM BKN014 BKN026 27/22 A3009 RMK AO2 SLP198 P0001
                 60003 T02670222 58002 =
2018-07-22 15:56 METAR KASH 221956Z VRB04KT 8SM BKN007 OVC011 24/23 A3010 RMK AO2 SLP201 P0001
                 T02390228 =
2018-07-22 14:56 METAR KASH 221856Z COR VRB05KT 7SM BKN005 OVC026 23/22 A3010 RMK AO2 SLP200
                 P0001 T02280222 =
2018-07-22 13:56 METAR KASH 221756Z VRB04KT 7SM BKN005 OVC011 21/21 A3010 RMK AO2 RAB02E04 SLP201
                 P0000 6//// T02110211 10217 20178 53003 =
2018-07-22 13:08 METAR KASH 221708Z 03004KT 3SM BR BKN005 OVC011 22/22 A3009 RMK AO2 RAB02E04
                 P0000 =
2018-07-22 12:56 METAR KASH 221656Z COR VRB04KT 3SM BR SCT005 OVC011 22/22 A3009 RMK AO2 RAE55
                 CIG 008V013 SLP197 P0001 T02170217 =
2018-07-22 12:53 METAR KASH 221653Z 02005KT 10SM -RA SCT005 OVC011 21/21 A3009 RMK AO2 P0001 =
2018-07-22 11:56 METAR KASH 221556Z VRB04KT 2 1/2SM -RA BR OVC005 21/21 A3008 RMK AO2 SLP196
                 T02060206 =

Support USWX by starting your Amazon purchase here.